sensor_id;sensor_type;location;lat;lon;timestamp;P1;durP1;ratioP1;P2;durP2;ratioP2
70558;SDS011;58108;48.094;11.838;2022-12-20T00:01:22;17.33;;;7.03;;
70558;SDS011;58108;48.094;11.838;2022-12-20T00:03:50;19.00;;;7.50;;
70558;SDS011;58108;48.094;11.838;2022-12-20T00:06:17;19.67;;;7.20;;
70558;SDS011;58108;48.094;11.838;2022-12-20T00:08:43;18.85;;;7.80;;
70558;SDS011;58108;48.094;11.838;2022-12-20T00:11:09;16.80;;;7.57;;
70558;SDS011;58108;48.094;11.838;2022-12-20T00:13:36;16.88;;;6.70;;
70558;SDS011;58108;48.094;11.838;2022-12-20T00:16:09;15.47;;;6.47;;
70558;SDS011;58108;48.094;11.838;2022-12-20T00:18:40;14.07;;;6.15;;
70558;SDS011;58108;48.094;11.838;2022-12-20T00:21:08;17.65;;;6.93;;
70558;SDS011;58108;48.094;11.838;2022-12-20T00:23:35;17.35;;;7.13;;
70558;SDS011;58108;48.094;11.838;2022-12-20T00:26:02;16.33;;;6.78;;
70558;SDS011;58108;48.094;11.838;2022-12-20T00:28:28;17.33;;;6.83;;
70558;SDS011;58108;48.094;11.838;2022-12-20T00:30:54;17.90;;;7.03;;
70558;SDS011;58108;48.094;11.838;2022-12-20T00:33:19;17.57;;;7.50;;
70558;SDS011;58108;48.094;11.838;2022-12-20T00:35:44;19.57;;;8.13;;
70558;SDS011;58108;48.094;11.838;2022-12-20T00:38:10;14.80;;;5.27;;
70558;SDS011;58108;48.094;11.838;2022-12-20T00:40:35;18.27;;;6.80;;
70558;SDS011;58108;48.094;11.838;2022-12-20T00:43:00;19.83;;;8.27;;
70558;SDS011;58108;48.094;11.838;2022-12-20T00:45:26;18.07;;;6.97;;
70558;SDS011;58108;48.094;11.838;2022-12-20T00:47:51;16.80;;;6.90;;
70558;SDS011;58108;48.094;11.838;2022-12-20T00:50:16;17.57;;;7.67;;
70558;SDS011;58108;48.094;11.838;2022-12-20T00:52:42;20.90;;;7.93;;
70558;SDS011;58108;48.094;11.838;2022-12-20T00:55:07;15.03;;;7.20;;
70558;SDS011;58108;48.094;11.838;2022-12-20T00:57:32;16.13;;;6.23;;
70558;SDS011;58108;48.094;11.838;2022-12-20T00:59:58;17.70;;;7.27;;
70558;SDS011;58108;48.094;11.838;2022-12-20T01:02:23;17.27;;;6.97;;
70558;SDS011;58108;48.094;11.838;2022-12-20T01:04:49;22.05;;;7.78;;
70558;SDS011;58108;48.094;11.838;2022-12-20T01:07:14;19.77;;;7.60;;
70558;SDS011;58108;48.094;11.838;2022-12-20T01:09:39;15.37;;;6.43;;
70558;SDS011;58108;48.094;11.838;2022-12-20T01:12:04;18.20;;;7.63;;
70558;SDS011;58108;48.094;11.838;2022-12-20T01:14:30;19.40;;;8.20;;
70558;SDS011;58108;48.094;11.838;2022-12-20T01:16:55;16.87;;;7.83;;
70558;SDS011;58108;48.094;11.838;2022-12-20T01:19:20;17.70;;;7.57;;
70558;SDS011;58108;48.094;11.838;2022-12-20T01:21:46;20.63;;;7.40;;
70558;SDS011;58108;48.094;11.838;2022-12-20T01:24:15;20.63;;;8.37;;
70558;SDS011;58108;48.094;11.838;2022-12-20T01:26:42;13.50;;;5.75;;
70558;SDS011;58108;48.094;11.838;2022-12-20T01:29:09;20.73;;;7.78;;
70558;SDS011;58108;48.094;11.838;2022-12-20T01:31:34;16.57;;;6.67;;
70558;SDS011;58108;48.094;11.838;2022-12-20T01:34:00;14.23;;;5.38;;
70558;SDS011;58108;48.094;11.838;2022-12-20T01:36:27;18.58;;;7.60;;
70558;SDS011;58108;48.094;11.838;2022-12-20T01:38:58;17.25;;;7.07;;
70558;SDS011;58108;48.094;11.838;2022-12-20T01:41:32;17.08;;;6.88;;
70558;SDS011;58108;48.094;11.838;2022-12-20T01:43:59;16.60;;;6.63;;
70558;SDS011;58108;48.094;11.838;2022-12-20T01:46:27;15.32;;;7.00;;
70558;SDS011;58108;48.094;11.838;2022-12-20T01:49:41;16.88;;;7.35;;
70558;SDS011;58108;48.094;11.838;2022-12-20T01:51:46;18.60;;;7.80;;
70558;SDS011;58108;48.094;11.838;2022-12-20T01:54:31;18.42;;;7.63;;
70558;SDS011;58108;48.094;11.838;2022-12-20T01:57:01;17.57;;;6.63;;
70558;SDS011;58108;48.094;11.838;2022-12-20T01:59:30;16.75;;;7.15;;
70558;SDS011;58108;48.094;11.838;2022-12-20T02:02:00;17.42;;;6.75;;
70558;SDS011;58108;48.094;11.838;2022-12-20T02:04:28;8.50;;;3.10;;
70558;SDS011;58108;48.094;11.838;2022-12-20T02:06:54;19.80;;;7.50;;
70558;SDS011;58108;48.094;11.838;2022-12-20T02:09:19;19.87;;;7.60;;
70558;SDS011;58108;48.094;11.838;2022-12-20T02:16:48;19.23;;;7.43;;
70558;SDS011;58108;48.094;11.838;2022-12-20T02:31:04;17.67;;;7.45;;
70558;SDS011;58108;48.094;11.838;2022-12-20T02:33:34;14.73;;;6.35;;
70558;SDS011;58108;48.094;11.838;2022-12-20T02:36:01;11.30;;;4.03;;
70558;SDS011;58108;48.094;11.838;2022-12-20T02:38:35;16.48;;;5.82;;
70558;SDS011;58108;48.094;11.838;2022-12-20T02:41:13;16.27;;;6.55;;
70558;SDS011;58108;48.094;11.838;2022-12-20T02:43:43;15.37;;;6.33;;
70558;SDS011;58108;48.094;11.838;2022-12-20T02:46:31;18.30;;;7.30;;
70558;SDS011;58108;48.094;11.838;2022-12-20T02:49:00;17.27;;;7.07;;
70558;SDS011;58108;48.094;11.838;2022-12-20T02:51:29;16.35;;;6.57;;
70558;SDS011;58108;48.094;11.838;2022-12-20T02:53:57;16.50;;;6.88;;
70558;SDS011;58108;48.094;11.838;2022-12-20T02:59:02;16.60;;;6.95;;
70558;SDS011;58108;48.094;11.838;2022-12-20T03:01:36;19.25;;;7.07;;
70558;SDS011;58108;48.094;11.838;2022-12-20T03:04:05;16.05;;;7.30;;
70558;SDS011;58108;48.094;11.838;2022-12-20T03:06:32;18.30;;;7.57;;
70558;SDS011;58108;48.094;11.838;2022-12-20T03:08:57;16.63;;;7.47;;
70558;SDS011;58108;48.094;11.838;2022-12-20T03:11:22;17.73;;;6.90;;
70558;SDS011;58108;48.094;11.838;2022-12-20T03:13:48;16.87;;;6.90;;
70558;SDS011;58108;48.094;11.838;2022-12-20T03:16:13;17.33;;;8.00;;
70558;SDS011;58108;48.094;11.838;2022-12-20T03:18:38;15.33;;;5.50;;
70558;SDS011;58108;48.094;11.838;2022-12-20T03:21:04;16.27;;;6.03;;
70558;SDS011;58108;48.094;11.838;2022-12-20T03:23:29;15.70;;;5.43;;
70558;SDS011;58108;48.094;11.838;2022-12-20T03:25:55;17.53;;;7.33;;
70558;SDS011;58108;48.094;11.838;2022-12-20T03:28:20;18.37;;;7.50;;
70558;SDS011;58108;48.094;11.838;2022-12-20T03:30:46;16.90;;;6.90;;
70558;SDS011;58108;48.094;11.838;2022-12-20T03:33:11;18.10;;;8.00;;
70558;SDS011;58108;48.094;11.838;2022-12-20T03:35:37;20.20;;;8.37;;
70558;SDS011;58108;48.094;11.838;2022-12-20T03:38:02;17.83;;;7.83;;
70558;SDS011;58108;48.094;11.838;2022-12-20T03:40:27;19.10;;;7.70;;
70558;SDS011;58108;48.094;11.838;2022-12-20T03:42:53;21.17;;;7.70;;
70558;SDS011;58108;48.094;11.838;2022-12-20T03:45:18;16.10;;;7.00;;
70558;SDS011;58108;48.094;11.838;2022-12-20T03:47:43;17.60;;;5.97;;
70558;SDS011;58108;48.094;11.838;2022-12-20T03:50:09;14.32;;;6.15;;
70558;SDS011;58108;48.094;11.838;2022-12-20T03:52:34;16.63;;;7.40;;
70558;SDS011;58108;48.094;11.838;2022-12-20T03:55:00;16.07;;;6.80;;
70558;SDS011;58108;48.094;11.838;2022-12-20T03:57:25;20.20;;;7.30;;
70558;SDS011;58108;48.094;11.838;2022-12-20T03:59:50;19.87;;;7.10;;
70558;SDS011;58108;48.094;11.838;2022-12-20T04:02:16;16.33;;;6.80;;
70558;SDS011;58108;48.094;11.838;2022-12-20T04:04:41;15.13;;;5.57;;
70558;SDS011;58108;48.094;11.838;2022-12-20T04:07:07;17.58;;;7.72;;
70558;SDS011;58108;48.094;11.838;2022-12-20T04:09:32;13.37;;;6.03;;
70558;SDS011;58108;48.094;11.838;2022-12-20T04:11:58;17.83;;;6.50;;
70558;SDS011;58108;48.094;11.838;2022-12-20T04:14:23;17.20;;;7.00;;
70558;SDS011;58108;48.094;11.838;2022-12-20T04:16:49;17.20;;;7.00;;
70558;SDS011;58108;48.094;11.838;2022-12-20T04:19:14;21.17;;;8.83;;
70558;SDS011;58108;48.094;11.838;2022-12-20T04:21:39;20.00;;;7.90;;
70558;SDS011;58108;48.094;11.838;2022-12-20T04:24:05;23.13;;;8.07;;
70558;SDS011;58108;48.094;11.838;2022-12-20T04:26:31;12.73;;;5.23;;
70558;SDS011;58108;48.094;11.838;2022-12-20T04:28:56;16.87;;;6.67;;
70558;SDS011;58108;48.094;11.838;2022-12-20T04:31:22;15.13;;;6.05;;
70558;SDS011;58108;48.094;11.838;2022-12-20T04:33:47;18.43;;;7.40;;
70558;SDS011;58108;48.094;11.838;2022-12-20T04:36:12;17.67;;;6.83;;
70558;SDS011;58108;48.094;11.838;2022-12-20T04:38:38;21.35;;;7.75;;
70558;SDS011;58108;48.094;11.838;2022-12-20T04:41:04;19.77;;;7.83;;
70558;SDS011;58108;48.094;11.838;2022-12-20T04:43:29;20.07;;;7.80;;
70558;SDS011;58108;48.094;11.838;2022-12-20T04:45:55;18.47;;;8.30;;
70558;SDS011;58108;48.094;11.838;2022-12-20T04:48:21;18.70;;;8.15;;
70558;SDS011;58108;48.094;11.838;2022-12-20T04:50:51;17.77;;;7.27;;
70558;SDS011;58108;48.094;11.838;2022-12-20T04:53:17;17.55;;;7.65;;
70558;SDS011;58108;48.094;11.838;2022-12-20T04:56:02;18.27;;;6.82;;
70558;SDS011;58108;48.094;11.838;2022-12-20T04:58:27;17.63;;;6.65;;
70558;SDS011;58108;48.094;11.838;2022-12-20T05:00:53;14.27;;;6.57;;
70558;SDS011;58108;48.094;11.838;2022-12-20T05:03:19;17.00;;;7.10;;
70558;SDS011;58108;48.094;11.838;2022-12-20T05:05:45;19.50;;;7.47;;
70558;SDS011;58108;48.094;11.838;2022-12-20T05:08:10;20.40;;;8.40;;
70558;SDS011;58108;48.094;11.838;2022-12-20T05:10:36;13.60;;;6.05;;
70558;SDS011;58108;48.094;11.838;2022-12-20T05:13:01;21.10;;;7.83;;
70558;SDS011;58108;48.094;11.838;2022-12-20T05:15:26;17.70;;;7.30;;
70558;SDS011;58108;48.094;11.838;2022-12-20T05:17:52;18.03;;;6.80;;
70558;SDS011;58108;48.094;11.838;2022-12-20T05:20:23;19.80;;;7.38;;
70558;SDS011;58108;48.094;11.838;2022-12-20T05:22:48;19.67;;;7.63;;
70558;SDS011;58108;48.094;11.838;2022-12-20T05:25:32;18.08;;;7.55;;
70558;SDS011;58108;48.094;11.838;2022-12-20T05:28:16;19.37;;;7.73;;
70558;SDS011;58108;48.094;11.838;2022-12-20T05:30:41;18.17;;;7.20;;
70558;SDS011;58108;48.094;11.838;2022-12-20T05:33:07;17.42;;;6.75;;
70558;SDS011;58108;48.094;11.838;2022-12-20T05:35:32;18.52;;;7.72;;
70558;SDS011;58108;48.094;11.838;2022-12-20T05:37:57;15.77;;;5.77;;
70558;SDS011;58108;48.094;11.838;2022-12-20T05:40:23;18.73;;;6.63;;
70558;SDS011;58108;48.094;11.838;2022-12-20T05:42:48;12.50;;;4.93;;
70558;SDS011;58108;48.094;11.838;2022-12-20T05:45:13;15.07;;;5.83;;
70558;SDS011;58108;48.094;11.838;2022-12-20T05:47:38;17.80;;;7.07;;
70558;SDS011;58108;48.094;11.838;2022-12-20T05:50:04;15.63;;;5.67;;
70558;SDS011;58108;48.094;11.838;2022-12-20T05:52:30;18.02;;;7.35;;
70558;SDS011;58108;48.094;11.838;2022-12-20T05:54:55;19.07;;;6.73;;
70558;SDS011;58108;48.094;11.838;2022-12-20T05:57:20;15.57;;;6.63;;
70558;SDS011;58108;48.094;11.838;2022-12-20T05:59:46;16.50;;;6.40;;
70558;SDS011;58108;48.094;11.838;2022-12-20T06:02:11;16.93;;;6.83;;
70558;SDS011;58108;48.094;11.838;2022-12-20T06:04:37;18.37;;;8.10;;
70558;SDS011;58108;48.094;11.838;2022-12-20T06:07:03;16.17;;;7.55;;
70558;SDS011;58108;48.094;11.838;2022-12-20T06:09:29;15.85;;;7.10;;
70558;SDS011;58108;48.094;11.838;2022-12-20T06:11:55;16.60;;;6.80;;
70558;SDS011;58108;48.094;11.838;2022-12-20T06:14:21;15.68;;;6.53;;
70558;SDS011;58108;48.094;11.838;2022-12-20T06:16:46;16.23;;;7.10;;
70558;SDS011;58108;48.094;11.838;2022-12-20T06:19:11;18.73;;;7.10;;
70558;SDS011;58108;48.094;11.838;2022-12-20T06:21:38;17.60;;;7.00;;
70558;SDS011;58108;48.094;11.838;2022-12-20T06:24:03;18.13;;;7.33;;
70558;SDS011;58108;48.094;11.838;2022-12-20T06:26:29;19.92;;;7.55;;
70558;SDS011;58108;48.094;11.838;2022-12-20T06:29:00;16.90;;;7.13;;
70558;SDS011;58108;48.094;11.838;2022-12-20T06:31:26;16.88;;;7.07;;
70558;SDS011;58108;48.094;11.838;2022-12-20T06:33:51;18.90;;;6.87;;
70558;SDS011;58108;48.094;11.838;2022-12-20T06:36:16;14.82;;;7.20;;
70558;SDS011;58108;48.094;11.838;2022-12-20T06:38:42;15.15;;;5.63;;
70558;SDS011;58108;48.094;11.838;2022-12-20T06:41:08;15.83;;;6.73;;
70558;SDS011;58108;48.094;11.838;2022-12-20T06:43:33;15.37;;;7.17;;
70558;SDS011;58108;48.094;11.838;2022-12-20T06:45:58;19.50;;;7.23;;
70558;SDS011;58108;48.094;11.838;2022-12-20T06:48:23;17.20;;;7.40;;
70558;SDS011;58108;48.094;11.838;2022-12-20T06:50:49;16.23;;;6.72;;
70558;SDS011;58108;48.094;11.838;2022-12-20T06:53:14;17.73;;;6.83;;
70558;SDS011;58108;48.094;11.838;2022-12-20T06:55:40;18.53;;;7.20;;
70558;SDS011;58108;48.094;11.838;2022-12-20T06:58:05;14.98;;;6.70;;
70558;SDS011;58108;48.094;11.838;2022-12-20T07:00:31;17.83;;;8.50;;
70558;SDS011;58108;48.094;11.838;2022-12-20T07:02:57;18.90;;;7.63;;
70558;SDS011;58108;48.094;11.838;2022-12-20T07:05:22;16.37;;;7.47;;
70558;SDS011;58108;48.094;11.838;2022-12-20T07:07:47;19.83;;;7.50;;
70558;SDS011;58108;48.094;11.838;2022-12-20T07:10:13;15.23;;;7.40;;
70558;SDS011;58108;48.094;11.838;2022-12-20T07:12:38;13.23;;;6.25;;
70558;SDS011;58108;48.094;11.838;2022-12-20T07:15:05;17.03;;;7.07;;
70558;SDS011;58108;48.094;11.838;2022-12-20T07:17:31;14.38;;;6.18;;
70558;SDS011;58108;48.094;11.838;2022-12-20T07:19:57;13.20;;;5.85;;
70558;SDS011;58108;48.094;11.838;2022-12-20T07:22:22;18.38;;;7.97;;
70558;SDS011;58108;48.094;11.838;2022-12-20T07:24:47;17.92;;;6.78;;
70558;SDS011;58108;48.094;11.838;2022-12-20T07:27:13;15.82;;;5.65;;
70558;SDS011;58108;48.094;11.838;2022-12-20T07:29:39;17.87;;;7.47;;
70558;SDS011;58108;48.094;11.838;2022-12-20T07:32:06;11.77;;;5.05;;
70558;SDS011;58108;48.094;11.838;2022-12-20T07:34:31;9.73;;;4.38;;
70558;SDS011;58108;48.094;11.838;2022-12-20T07:36:57;12.33;;;5.97;;
70558;SDS011;58108;48.094;11.838;2022-12-20T07:39:22;11.07;;;4.97;;
70558;SDS011;58108;48.094;11.838;2022-12-20T07:41:48;10.33;;;4.00;;
70558;SDS011;58108;48.094;11.838;2022-12-20T07:44:13;11.47;;;4.70;;
70558;SDS011;58108;48.094;11.838;2022-12-20T07:46:38;17.30;;;6.50;;
70558;SDS011;58108;48.094;11.838;2022-12-20T07:49:04;12.57;;;5.40;;
70558;SDS011;58108;48.094;11.838;2022-12-20T07:51:34;13.03;;;5.57;;
70558;SDS011;58108;48.094;11.838;2022-12-20T07:54:12;13.45;;;5.25;;
70558;SDS011;58108;48.094;11.838;2022-12-20T07:56:42;11.95;;;4.85;;
70558;SDS011;58108;48.094;11.838;2022-12-20T07:59:11;14.37;;;6.27;;
70558;SDS011;58108;48.094;11.838;2022-12-20T08:01:40;14.93;;;5.90;;
70558;SDS011;58108;48.094;11.838;2022-12-20T08:04:09;15.80;;;7.05;;
70558;SDS011;58108;48.094;11.838;2022-12-20T08:06:38;14.95;;;7.00;;
70558;SDS011;58108;48.094;11.838;2022-12-20T08:09:05;16.15;;;6.80;;
70558;SDS011;58108;48.094;11.838;2022-12-20T08:11:31;16.37;;;6.60;;
70558;SDS011;58108;48.094;11.838;2022-12-20T08:13:58;12.82;;;5.25;;
70558;SDS011;58108;48.094;11.838;2022-12-20T08:16:24;16.30;;;6.68;;
70558;SDS011;58108;48.094;11.838;2022-12-20T08:18:49;17.50;;;6.97;;
70558;SDS011;58108;48.094;11.838;2022-12-20T08:21:15;16.07;;;7.10;;
70558;SDS011;58108;48.094;11.838;2022-12-20T08:23:40;16.15;;;6.85;;
70558;SDS011;58108;48.094;11.838;2022-12-20T08:26:05;15.25;;;6.15;;
70558;SDS011;58108;48.094;11.838;2022-12-20T08:28:31;12.00;;;4.27;;
70558;SDS011;58108;48.094;11.838;2022-12-20T08:31:03;16.13;;;6.53;;
70558;SDS011;58108;48.094;11.838;2022-12-20T08:33:31;14.48;;;6.28;;
70558;SDS011;58108;48.094;11.838;2022-12-20T08:36:00;13.70;;;5.57;;
70558;SDS011;58108;48.094;11.838;2022-12-20T08:38:28;13.27;;;5.67;;
70558;SDS011;58108;48.094;11.838;2022-12-20T08:40:55;12.43;;;5.25;;
70558;SDS011;58108;48.094;11.838;2022-12-20T08:43:21;11.90;;;5.55;;
70558;SDS011;58108;48.094;11.838;2022-12-20T08:45:53;10.87;;;5.37;;
70558;SDS011;58108;48.094;11.838;2022-12-20T08:48:19;10.73;;;4.55;;
70558;SDS011;58108;48.094;11.838;2022-12-20T08:50:45;10.70;;;5.13;;
70558;SDS011;58108;48.094;11.838;2022-12-20T08:53:10;10.57;;;4.37;;
70558;SDS011;58108;48.094;11.838;2022-12-20T08:55:36;12.48;;;4.93;;
70558;SDS011;58108;48.094;11.838;2022-12-20T08:58:02;11.10;;;5.27;;
70558;SDS011;58108;48.094;11.838;2022-12-20T09:00:27;11.07;;;5.10;;
70558;SDS011;58108;48.094;11.838;2022-12-20T09:02:53;12.60;;;5.40;;
70558;SDS011;58108;48.094;11.838;2022-12-20T09:05:18;9.85;;;4.63;;
70558;SDS011;58108;48.094;11.838;2022-12-20T09:07:44;9.77;;;5.20;;
70558;SDS011;58108;48.094;11.838;2022-12-20T09:10:09;12.27;;;5.07;;
70558;SDS011;58108;48.094;11.838;2022-12-20T09:12:35;10.15;;;4.90;;
70558;SDS011;58108;48.094;11.838;2022-12-20T09:15:02;10.13;;;4.30;;
70558;SDS011;58108;48.094;11.838;2022-12-20T09:17:28;10.80;;;4.50;;
70558;SDS011;58108;48.094;11.838;2022-12-20T09:19:53;12.88;;;5.13;;
70558;SDS011;58108;48.094;11.838;2022-12-20T09:22:19;11.33;;;5.40;;
70558;SDS011;58108;48.094;11.838;2022-12-20T09:24:44;9.67;;;4.70;;
70558;SDS011;58108;48.094;11.838;2022-12-20T09:27:09;8.57;;;4.17;;
70558;SDS011;58108;48.094;11.838;2022-12-20T09:29:35;8.27;;;3.77;;
70558;SDS011;58108;48.094;11.838;2022-12-20T09:32:00;9.30;;;4.37;;
70558;SDS011;58108;48.094;11.838;2022-12-20T09:34:25;9.80;;;4.73;;
70558;SDS011;58108;48.094;11.838;2022-12-20T09:36:51;9.13;;;3.87;;
70558;SDS011;58108;48.094;11.838;2022-12-20T09:39:16;9.43;;;4.27;;
70558;SDS011;58108;48.094;11.838;2022-12-20T09:41:42;9.57;;;4.23;;
70558;SDS011;58108;48.094;11.838;2022-12-20T09:46:39;10.00;;;4.57;;
70558;SDS011;58108;48.094;11.838;2022-12-20T09:49:05;9.60;;;4.45;;
70558;SDS011;58108;48.094;11.838;2022-12-20T09:51:37;12.27;;;4.83;;
70558;SDS011;58108;48.094;11.838;2022-12-20T09:57:15;10.48;;;4.85;;
70558;SDS011;58108;48.094;11.838;2022-12-20T09:59:51;8.90;;;4.07;;
70558;SDS011;58108;48.094;11.838;2022-12-20T10:02:21;8.95;;;4.07;;
70558;SDS011;58108;48.094;11.838;2022-12-20T10:04:47;9.47;;;4.57;;
70558;SDS011;58108;48.094;11.838;2022-12-20T10:10:18;10.23;;;4.13;;
70558;SDS011;58108;48.094;11.838;2022-12-20T10:12:52;9.77;;;4.57;;
70558;SDS011;58108;48.094;11.838;2022-12-20T10:15:23;10.17;;;4.77;;
70558;SDS011;58108;48.094;11.838;2022-12-20T10:17:57;11.38;;;4.40;;
70558;SDS011;58108;48.094;11.838;2022-12-20T10:25:51;8.75;;;4.00;;
70558;SDS011;58108;48.094;11.838;2022-12-20T10:28:19;9.17;;;4.30;;
70558;SDS011;58108;48.094;11.838;2022-12-20T10:30:51;9.80;;;4.63;;
70558;SDS011;58108;48.094;11.838;2022-12-20T10:33:20;11.17;;;4.47;;
70558;SDS011;58108;48.094;11.838;2022-12-20T10:35:47;10.32;;;4.78;;
70558;SDS011;58108;48.094;11.838;2022-12-20T10:38:14;12.52;;;4.68;;
70558;SDS011;58108;48.094;11.838;2022-12-20T10:40:46;10.63;;;5.00;;
70558;SDS011;58108;48.094;11.838;2022-12-20T10:43:17;10.90;;;4.70;;
70558;SDS011;58108;48.094;11.838;2022-12-20T10:46:06;9.65;;;4.60;;
70558;SDS011;58108;48.094;11.838;2022-12-20T10:48:34;10.20;;;5.03;;
70558;SDS011;58108;48.094;11.838;2022-12-20T10:58:54;9.50;;;4.90;;
70558;SDS011;58108;48.094;11.838;2022-12-20T11:01:25;12.30;;;5.13;;
70558;SDS011;58108;48.094;11.838;2022-12-20T11:04:00;10.80;;;5.10;;
70558;SDS011;58108;48.094;11.838;2022-12-20T11:06:49;10.90;;;4.65;;
70558;SDS011;58108;48.094;11.838;2022-12-20T11:12:01;11.25;;;4.70;;
70558;SDS011;58108;48.094;11.838;2022-12-20T11:14:40;8.40;;;3.92;;
70558;SDS011;58108;48.094;11.838;2022-12-20T11:22:33;9.73;;;4.10;;
70558;SDS011;58108;48.094;11.838;2022-12-20T11:25:19;8.67;;;4.47;;
70558;SDS011;58108;48.094;11.838;2022-12-20T11:28:10;10.00;;;4.30;;
70558;SDS011;58108;48.094;11.838;2022-12-20T11:30:53;9.10;;;4.30;;
70558;SDS011;58108;48.094;11.838;2022-12-20T11:33:29;9.93;;;4.72;;
70558;SDS011;58108;48.094;11.838;2022-12-20T11:36:12;10.75;;;4.28;;
70558;SDS011;58108;48.094;11.838;2022-12-20T11:38:47;10.43;;;4.73;;
70558;SDS011;58108;48.094;11.838;2022-12-20T11:41:20;12.15;;;5.28;;
70558;SDS011;58108;48.094;11.838;2022-12-20T11:49:51;11.50;;;5.35;;
70558;SDS011;58108;48.094;11.838;2022-12-20T11:55:08;12.70;;;6.00;;
70558;SDS011;58108;48.094;11.838;2022-12-20T11:58:32;8.82;;;4.80;;
70558;SDS011;58108;48.094;11.838;2022-12-20T12:00:45;11.10;;;5.40;;
70558;SDS011;58108;48.094;11.838;2022-12-20T12:05:59;12.33;;;5.87;;
70558;SDS011;58108;48.094;11.838;2022-12-20T12:08:42;11.27;;;5.45;;
70558;SDS011;58108;48.094;11.838;2022-12-20T12:11:18;13.90;;;6.40;;
70558;SDS011;58108;48.094;11.838;2022-12-20T12:13:46;10.70;;;5.70;;
70558;SDS011;58108;48.094;11.838;2022-12-20T12:18:48;11.57;;;5.13;;
70558;SDS011;58108;48.094;11.838;2022-12-20T12:21:23;10.57;;;4.60;;
70558;SDS011;58108;48.094;11.838;2022-12-20T12:26:54;13.77;;;6.35;;
70558;SDS011;58108;48.094;11.838;2022-12-20T12:29:20;15.23;;;6.07;;
70558;SDS011;58108;48.094;11.838;2022-12-20T12:32:08;12.57;;;6.10;;
70558;SDS011;58108;48.094;11.838;2022-12-20T12:40:32;13.15;;;5.78;;
70558;SDS011;58108;48.094;11.838;2022-12-20T12:46:02;11.35;;;5.55;;
70558;SDS011;58108;48.094;11.838;2022-12-20T12:48:35;11.90;;;5.50;;
70558;SDS011;58108;48.094;11.838;2022-12-20T12:51:06;13.98;;;5.40;;
70558;SDS011;58108;48.094;11.838;2022-12-20T12:53:35;9.93;;;5.30;;
70558;SDS011;58108;48.094;11.838;2022-12-20T13:09:17;10.88;;;5.47;;
70558;SDS011;58108;48.094;11.838;2022-12-20T13:11:46;9.05;;;4.20;;
70558;SDS011;58108;48.094;11.838;2022-12-20T13:16:50;11.52;;;5.13;;
70558;SDS011;58108;48.094;11.838;2022-12-20T13:19:33;10.27;;;4.80;;
70558;SDS011;58108;48.094;11.838;2022-12-20T13:24:54;11.53;;;5.40;;
70558;SDS011;58108;48.094;11.838;2022-12-20T13:27:25;13.15;;;5.40;;
70558;SDS011;58108;48.094;11.838;2022-12-20T13:37:58;11.60;;;5.30;;
70558;SDS011;58108;48.094;11.838;2022-12-20T13:40:41;12.45;;;4.68;;
70558;SDS011;58108;48.094;11.838;2022-12-20T13:48:35;10.20;;;4.40;;
70558;SDS011;58108;48.094;11.838;2022-12-20T13:51:17;11.70;;;4.50;;
70558;SDS011;58108;48.094;11.838;2022-12-20T13:53:53;9.68;;;4.13;;
70558;SDS011;58108;48.094;11.838;2022-12-20T14:01:49;7.78;;;3.25;;
70558;SDS011;58108;48.094;11.838;2022-12-20T14:04:17;10.57;;;4.30;;
70558;SDS011;58108;48.094;11.838;2022-12-20T14:06:46;8.23;;;3.70;;
70558;SDS011;58108;48.094;11.838;2022-12-20T14:09:32;8.43;;;3.58;;
70558;SDS011;58108;48.094;11.838;2022-12-20T14:12:06;9.82;;;4.10;;
70558;SDS011;58108;48.094;11.838;2022-12-20T14:14:41;10.23;;;4.38;;
70558;SDS011;58108;48.094;11.838;2022-12-20T14:20:01;7.45;;;3.53;;
70558;SDS011;58108;48.094;11.838;2022-12-20T14:22:29;12.15;;;4.43;;
70558;SDS011;58108;48.094;11.838;2022-12-20T14:24:56;8.07;;;3.88;;
70558;SDS011;58108;48.094;11.838;2022-12-20T14:27:21;9.00;;;3.67;;
70558;SDS011;58108;48.094;11.838;2022-12-20T14:29:46;6.83;;;2.73;;
70558;SDS011;58108;48.094;11.838;2022-12-20T14:32:17;12.35;;;3.92;;
70558;SDS011;58108;48.094;11.838;2022-12-20T14:34:43;8.52;;;3.92;;
70558;SDS011;58108;48.094;11.838;2022-12-20T14:39:54;7.15;;;3.33;;
70558;SDS011;58108;48.094;11.838;2022-12-20T14:42:22;8.65;;;3.70;;
70558;SDS011;58108;48.094;11.838;2022-12-20T14:45:03;7.97;;;3.53;;
70558;SDS011;58108;48.094;11.838;2022-12-20T14:47:46;7.28;;;3.05;;
70558;SDS011;58108;48.094;11.838;2022-12-20T14:50:18;8.13;;;3.63;;
70558;SDS011;58108;48.094;11.838;2022-12-20T14:52:46;6.50;;;2.75;;
70558;SDS011;58108;48.094;11.838;2022-12-20T14:55:21;4.57;;;2.40;;
70558;SDS011;58108;48.094;11.838;2022-12-20T14:57:50;5.50;;;2.30;;
70558;SDS011;58108;48.094;11.838;2022-12-20T15:02:56;6.43;;;2.83;;
70558;SDS011;58108;48.094;11.838;2022-12-20T15:10:51;9.13;;;3.40;;
70558;SDS011;58108;48.094;11.838;2022-12-20T15:13:30;6.43;;;2.65;;
70558;SDS011;58108;48.094;11.838;2022-12-20T15:18:44;7.28;;;3.28;;
70558;SDS011;58108;48.094;11.838;2022-12-20T15:21:17;5.90;;;3.03;;
70558;SDS011;58108;48.094;11.838;2022-12-20T15:23:52;7.00;;;3.30;;
70558;SDS011;58108;48.094;11.838;2022-12-20T15:26:20;6.93;;;3.00;;
70558;SDS011;58108;48.094;11.838;2022-12-20T15:28:47;8.82;;;3.67;;
70558;SDS011;58108;48.094;11.838;2022-12-20T15:31:13;9.10;;;3.93;;
70558;SDS011;58108;48.094;11.838;2022-12-20T15:33:41;8.20;;;3.55;;
70558;SDS011;58108;48.094;11.838;2022-12-20T15:36:17;10.50;;;3.88;;
70558;SDS011;58108;48.094;11.838;2022-12-20T15:38:44;9.05;;;4.05;;
70558;SDS011;58108;48.094;11.838;2022-12-20T15:41:12;9.18;;;4.60;;
70558;SDS011;58108;48.094;11.838;2022-12-20T15:43:42;11.20;;;4.53;;
70558;SDS011;58108;48.094;11.838;2022-12-20T15:46:09;10.05;;;3.67;;
70558;SDS011;58108;48.094;11.838;2022-12-20T15:48:34;9.27;;;3.83;;
70558;SDS011;58108;48.094;11.838;2022-12-20T15:50:59;7.80;;;3.23;;
70558;SDS011;58108;48.094;11.838;2022-12-20T15:53:30;8.73;;;4.33;;
70558;SDS011;58108;48.094;11.838;2022-12-20T15:55:57;8.27;;;3.30;;
70558;SDS011;58108;48.094;11.838;2022-12-20T15:58:23;8.43;;;3.10;;
70558;SDS011;58108;48.094;11.838;2022-12-20T16:00:50;8.90;;;3.63;;
70558;SDS011;58108;48.094;11.838;2022-12-20T16:03:19;6.18;;;2.97;;
70558;SDS011;58108;48.094;11.838;2022-12-20T16:05:46;7.85;;;3.30;;
70558;SDS011;58108;48.094;11.838;2022-12-20T16:08:13;9.23;;;3.72;;
70558;SDS011;58108;48.094;11.838;2022-12-20T16:10:40;11.20;;;5.20;;
70558;SDS011;58108;48.094;11.838;2022-12-20T16:13:06;8.60;;;3.72;;
70558;SDS011;58108;48.094;11.838;2022-12-20T16:15:36;11.27;;;5.32;;
70558;SDS011;58108;48.094;11.838;2022-12-20T16:18:01;11.90;;;5.22;;
70558;SDS011;58108;48.094;11.838;2022-12-20T16:20:27;17.23;;;6.07;;
70558;SDS011;58108;48.094;11.838;2022-12-20T16:22:53;11.70;;;5.60;;
70558;SDS011;58108;48.094;11.838;2022-12-20T16:25:22;11.07;;;5.33;;
70558;SDS011;58108;48.094;11.838;2022-12-20T16:27:53;10.10;;;5.30;;
70558;SDS011;58108;48.094;11.838;2022-12-20T16:30:18;12.00;;;5.53;;
70558;SDS011;58108;48.094;11.838;2022-12-20T16:32:43;20.30;;;9.87;;
70558;SDS011;58108;48.094;11.838;2022-12-20T16:35:14;16.63;;;8.80;;
70558;SDS011;58108;48.094;11.838;2022-12-20T16:37:46;15.88;;;7.40;;
70558;SDS011;58108;48.094;11.838;2022-12-20T16:40:12;12.63;;;5.90;;